Dades meteomassalio
Diari Summary for Febrer 28, 2018 Units:  English    Metric   Both
« Previous Day
Next Day »
Diari Semanal Mensual Anual Personalitzat
  Maxima: Minima: Mijana:
Temperatura: TemperatureC °F 0.6 °F 6.2 °F
Rosada: DewpointC °F -1.5 °F 4.1 °F
Humitat: Humidity % 76 % 86 %
Velocitat del vent: WindSpeedKMH mph 0.0 mph 5 mph
Racha vent: WindSpeedGustKMH mph - -
Vent:- - SE
Pressio: PressurehPa in 996.5 in -
Pluja: 8.9 in    
Historical Graphs
 
 
Tabular Data for Febrer 28, 2018
Time Temperature Dew Point Pressure Wind Wind Speed Wind Gust Humidity Rainfall Rate (Hourly) solar Conditions
TemperatureC °F DewpointC °F PressurehPa in Calm     Humidity % HourlyPrecipMM in SolarRadiationWatts/m^2 W/m2 Conditions
00:03 0.6 °F -1.5 °F 1010.0 in Calm     86 % 0.0 in 0.0 W/m2 CLR
00:08 0.6 °F -1.5 °F 1010.0 in Calm     86 % 0.0 in 0.0 W/m2 CLR
00:13 0.6 °F -1.5 °F 1010.0 in Calm     86 % 0.0 in 0.0 W/m2 CLR
00:18 0.6 °F -1.3 °F 1010.0 in Calm     87 % 0.0 in 0.0 W/m2 CLR
00:23 0.6 °F -1.3 °F 1009.7 in Calm     87 % 0.0 in 0.0 W/m2 CLR
00:28 0.7 °F -1.2 °F 1009.7 in Calm     87 % 0.0 in 0.0 W/m2 CLR
00:33 0.7 °F -1.2 °F 1009.7 in Calm     87 % 0.0 in 0.0 W/m2 CLR
00:38 0.7 °F -1.2 °F 1009.7 in Calm     87 % 0.0 in 0.0 W/m2 CLR
00:43 0.7 °F -1.2 °F 1009.7 in Calm     87 % 0.0 in 0.0 W/m2 CLR
00:49 0.7 °F -1.2 °F 1009.7 in Calm     87 % 0.0 in 0.0 W/m2 CLR
00:54 0.7 °F -1.1 °F 1009.7 in Calm     88 % 0.0 in 0.0 W/m2 CLR
00:59 0.7 °F -1.1 °F 1009.7 in Calm     88 % 0.0 in 0.0 W/m2 CLR
01:04 0.7 °F -1.1 °F 1010.0 in Calm     88 % 0.0 in 0.0 W/m2 CLR
01:09 0.7 °F -1.1 °F 1009.7 in Calm     88 % 0.0 in 0.0 W/m2 CLR
01:14 0.7 °F -1.1 °F 1009.7 in Calm     88 % 0.0 in 0.0 W/m2 CLR
01:19 0.7 °F -1.1 °F 1009.7 in Calm     88 % 0.0 in 0.0 W/m2 CLR
01:24 0.7 °F -1.1 °F 1009.7 in Calm     88 % 0.0 in 0.0 W/m2 CLR
01:29 0.7 °F -0.9 °F 1009.4 in Calm     89 % 0.0 in 0.0 W/m2 CLR
01:34 0.7 °F -0.9 °F 1009.4 in Calm     89 % 0.0 in 0.0 W/m2 CLR
01:39 0.8 °F -0.8 °F 1009.4 in Calm     89 % 0.0 in 0.0 W/m2 CLR
01:44 0.7 °F -0.9 °F 1009.0 in Calm     89 % 0.0 in 0.0 W/m2 CLR
01:49 0.8 °F -0.8 °F 1009.0 in Calm     89 % 0.0 in 0.0 W/m2 CLR
01:54 0.7 °F -0.9 °F 1009.0 in Calm     89 % 0.0 in 0.0 W/m2 CLR
01:59 0.7 °F -0.9 °F 1008.7 in Calm     89 % 0.0 in 0.0 W/m2 CLR
02:04 0.7 °F -0.7 °F 1008.7 in Calm     90 % 0.0 in 0.0 W/m2 CLR
02:09 0.7 °F -0.7 °F 1008.7 in Calm     90 % 0.0 in 0.0 W/m2 CLR
02:14 0.7 °F -0.7 °F 1008.7 in Calm     90 % 0.0 in 0.0 W/m2 CLR
02:19 0.7 °F -0.7 °F 1008.7 in Calm     90 % 0.3 in 0.0 W/m2 RA
02:24 0.7 °F -0.7 °F 1008.4 in Calm     90 % 0.3 in 0.0 W/m2
02:29 0.7 °F -0.7 °F 1008.4 in Calm     90 % 0.3 in 0.0 W/m2 CLR
02:34 0.7 °F -0.7 °F 1008.4 in Calm     90 % 0.5 in 0.0 W/m2 RA
02:39 0.7 °F -0.7 °F 1008.0 in Calm     90 % 0.5 in 0.0 W/m2 CLR
02:44 0.7 °F -0.7 °F 1008.4 in Calm     90 % 0.5 in 0.0 W/m2 RA
02:49 0.8 °F -0.7 °F 1008.0 in Calm     90 % 0.5 in 0.0 W/m2 CLR
02:54 0.8 °F -0.5 °F 1008.0 in Calm     91 % 0.8 in 0.0 W/m2 RA
02:59 0.8 °F -0.5 °F 1007.7 in Calm     91 % 1.0 in 0.0 W/m2 RA
03:04 0.8 °F -0.5 °F 1007.7 in Calm     91 % 1.3 in 0.0 W/m2 RA
03:09 0.8 °F -0.4 °F 1007.7 in Calm     91 % 1.3 in 0.0 W/m2
03:14 0.8 °F -0.4 °F 1007.7 in Calm     91 % 1.5 in 0.0 W/m2 RA
03:19 0.8 °F -0.4 °F 1007.7 in Calm     91 % 1.5 in 0.0 W/m2 RA
03:24 0.8 °F -0.4 °F 1007.3 in Calm     91 % 1.5 in 0.0 W/m2 RA
03:29 0.9 °F -0.4 °F 1007.3 in Calm     91 % 1.8 in 0.0 W/m2 RA
03:34 0.9 °F -0.4 °F 1007.3 in Calm     91 % 2.0 in 0.0 W/m2 RA
03:39 0.9 °F -0.3 °F 1007.3 in Calm     91 % 2.0 in 0.0 W/m2
03:44 0.9 °F -0.3 °F 1007.0 in Calm     91 % 2.3 in 0.0 W/m2 RA
03:49 0.9 °F -0.3 °F 1007.0 in Calm     91 % 2.3 in 0.0 W/m2 RA
03:54 0.9 °F -0.3 °F 1006.7 in Calm     91 % 2.3 in 0.0 W/m2 RA
03:59 0.9 °F -0.3 °F 1006.7 in Calm     91 % 2.3 in 0.0 W/m2 RA
04:04 0.9 °F -0.3 °F 1006.7 in Calm     91 % 2.3 in 0.0 W/m2 RA
04:09 1.0 °F -0.2 °F 1007.0 in Calm     92 % 2.8 in 0.0 W/m2 RA
04:14 1.1 °F -0.1 °F 1007.0 in Calm     92 % 3.0 in 0.0 W/m2 RA
04:19 1.3 °F 0.1 °F 1007.0 in Calm     92 % 3.0 in 0.0 W/m2 RA
04:24 1.5 °F 0.3 °F 1007.0 in Calm     92 % 3.3 in 0.0 W/m2 RA
04:29 1.8 °F 0.7 °F 1007.0 in Calm     92 % 3.3 in 0.0 W/m2 RA
04:34 2.1 °F 0.9 °F 1006.7 in Calm     92 % 3.3 in 0.0 W/m2 RA
04:39 2.1 °F 0.9 °F 1006.7 in Calm     92 % 3.3 in 0.0 W/m2 RA
04:44 2.2 °F 1.1 °F 1006.7 in Calm     92 % 3.3 in 0.0 W/m2 RA
04:49 2.3 °F 1.1 °F 1006.7 in ESE 3.2 mph 3.2 mph 92 % 3.3 in 0.0 W/m2 RA
04:54 2.5 °F 1.3 °F 1006.7 in SE 7.4 mph 7.4 mph 92 % 3.6 in 0.0 W/m2 RA
04:59 2.6 °F 1.4 °F 1006.3 in SE 13.0 mph 13.0 mph 92 % 3.6 in 0.0 W/m2 RA
05:04 2.7 °F 1.5 °F 1006.0 in SSE 16.1 mph 16.1 mph 92 % 3.6 in 0.0 W/m2 RA
05:09 2.8 °F 1.6 °F 1006.0 in SE 13.0 mph 13.0 mph 92 % 3.6 in 0.0 W/m2 RA
05:14 2.9 °F 1.6 °F 1006.0 in SSE 14.8 mph 14.8 mph 91 % 3.3 in 0.0 W/m2
05:19 2.9 °F 1.6 °F 1005.6 in SSE 18.5 mph 18.5 mph 91 % 3.3 in 0.0 W/m2 RA
05:24 2.9 °F 1.6 °F 1005.3 in East 7.4 mph 7.4 mph 91 % 3.0 in 0.0 W/m2 RA
05:29 2.8 °F 1.5 °F 1005.3 in SSE 5.6 mph 5.6 mph 91 % 2.8 in 0.0 W/m2 CLR
05:34 2.8 °F 1.4 °F 1005.3 in SE 3.7 mph 3.7 mph 91 % 2.3 in 0.0 W/m2 CLR
05:39 2.8 °F 1.4 °F 1005.3 in ESE 5.6 mph 5.6 mph 91 % 2.3 in 0.0 W/m2 CLR
05:44 2.8 °F 1.4 °F 1005.0 in ESE 3.7 mph   91 % 2.3 in 0.0 W/m2 RA
05:49 2.7 °F 1.4 °F 1005.0 in East 1.9 mph 1.9 mph 91 % 1.8 in 0.0 W/m2 CLR
05:54 2.8 °F 1.4 °F 1005.0 in ESE 5.6 mph 5.6 mph 91 % 1.5 in 0.0 W/m2 CLR
05:59 2.9 °F 1.6 °F 1004.6 in SE 5.6 mph 5.6 mph 91 % 1.3 in 0.0 W/m2 CLR
06:04 3.0 °F 1.7 °F 1004.6 in SE 8.0 mph 8.0 mph 91 % 1.0 in 0.0 W/m2 CLR
06:09 3.2 °F 1.8 °F 1004.6 in Calm     91 % 0.5 in 0.0 W/m2 CLR
06:14 3.1 °F 1.8 °F 1004.3 in ESE 3.2 mph 3.2 mph 91 % 0.8 in 0.0 W/m2 RA
06:20 3.1 °F 1.8 °F 1004.3 in Calm     91 % 0.5 in 0.0 W/m2
06:25 3.1 °F 1.8 °F 1004.3 in ESE 6.4 mph 6.4 mph 91 % 0.5 in 0.0 W/m2 CLR
06:30 3.2 °F 1.8 °F 1004.3 in Calm   1.3 mph 91 % 0.5 in 0.0 W/m2 CLR
06:35 3.2 °F 1.9 °F 1004.6 in East 1.9 mph   91 % 0.5 in 0.0 W/m2 CLR
06:40 3.3 °F 1.9 °F 1004.3 in Calm     91 % 0.5 in 0.0 W/m2 CLR
06:45 3.3 °F 1.9 °F 1004.6 in Calm     91 % 0.3 in 0.0 W/m2 CLR
06:50 3.3 °F 1.9 °F 1004.3 in Calm     91 % 0.3 in 0.0 W/m2 CLR
06:55 3.3 °F 2.0 °F 1004.3 in Calm     91 % 0.3 in 0.0 W/m2 CLR
07:00 3.3 °F 2.0 °F 1004.3 in Calm     91 % 0.3 in 0.0 W/m2 CLR
07:05 3.3 °F 2.0 °F 1003.9 in Calm     91 % 0.3 in 0.0 W/m2 CLR
07:10 3.4 °F 2.1 °F 1003.9 in ESE 3.7 mph 3.7 mph 91 % 0.3 in 0.0 W/m2 CLR
07:15 3.5 °F 2.2 °F 1003.6 in ESE 9.7 mph 9.7 mph 91 % 0.0 in 0.0 W/m2 CLR
07:20 3.6 °F 2.3 °F 1003.6 in SE 5.6 mph 5.6 mph 91 % 0.0 in 0.0 W/m2 CLR
07:25 3.8 °F 2.4 °F 1003.6 in SE 5.6 mph 5.6 mph 91 % 0.0 in 0.0 W/m2 OVC
07:30 3.9 °F 2.4 °F 1003.6 in East 1.9 mph   90 % 0.0 in 0.0 W/m2 OVC
07:35 3.9 °F 2.4 °F 1003.6 in SE 5.6 mph 5.6 mph 90 % 0.0 in 0.0 W/m2 OVC
07:40 3.9 °F 2.4 °F 1003.6 in SE 1.9 mph 1.9 mph 90 % 0.0 in 0.0 W/m2 OVC
07:45 3.9 °F 2.4 °F 1003.3 in Calm     90 % 0.0 in 0.0 W/m2 OVC
07:50 4.1 °F 2.4 °F 1003.3 in ESE 1.9 mph 1.9 mph 89 % 0.0 in 0.0 W/m2 OVC
07:55 4.1 °F 2.4 °F 1003.3 in ESE 11.1 mph 11.1 mph 89 % 0.0 in 5.0 W/m2 OVC
08:00 4.0 °F 2.3 °F 1003.3 in ESE 14.8 mph 14.8 mph 89 % 0.0 in 5.0 W/m2 OVC
08:05 3.9 °F 2.3 °F 1003.3 in ESE 1.9 mph   89 % 0.0 in 5.0 W/m2 OVC
08:10 4.0 °F 2.3 °F 1003.3 in East 11.1 mph 11.1 mph 89 % 0.0 in 9.0 W/m2 BKN
08:15 4.0 °F 2.3 °F 1003.3 in SE 6.4 mph 6.4 mph 89 % 0.0 in 12.0 W/m2 BKN
08:20 4.1 °F 2.4 °F 1003.3 in ESE 6.4 mph 6.4 mph 89 % 0.0 in 18.0 W/m2 BKN
08:25 4.2 °F 2.5 °F 1003.3 in ESE 3.7 mph 3.7 mph 89 % 0.0 in 19.0 W/m2 BKN
08:30 4.2 °F 2.6 °F 1003.3 in Calm     89 % 0.0 in 23.0 W/m2 BKN
08:35 4.3 °F 2.6 °F 1003.3 in ESE 13.0 mph 13.0 mph 89 % 0.0 in 23.0 W/m2 BKN
08:40 4.3 °F 2.7 °F 1003.3 in ESE 5.6 mph 5.6 mph 89 % 0.0 in 19.0 W/m2 BKN
08:45 4.4 °F 2.6 °F 1003.3 in ESE 5.6 mph 5.6 mph 88 % 0.0 in 23.0 W/m2 BKN
08:50 4.6 °F 2.8 °F 1003.3 in SE 5.6 mph 5.6 mph 88 % 0.3 in 26.0 W/m2 RA
08:55 4.7 °F 2.8 °F 1002.9 in SE 3.7 mph 3.7 mph 88 % 0.3 in 32.0 W/m2 BKN
09:00 4.7 °F 2.9 °F 1002.9 in Calm     88 % 0.3 in 39.0 W/m2 BKN
09:05 4.7 °F 2.9 °F 1002.9 in East 1.9 mph 1.9 mph 88 % 0.3 in 39.0 W/m2 BKN
09:10 4.8 °F 2.9 °F 1002.9 in SE 3.7 mph 3.7 mph 88 % 0.3 in 37.0 W/m2 BKN
09:15 4.8 °F 3.0 °F 1002.9 in ESE 3.7 mph 3.7 mph 88 % 0.3 in 37.0 W/m2 BKN
09:20 4.8 °F 3.0 °F 1002.9 in SE 8.0 mph 8.0 mph 88 % 0.3 in 40.0 W/m2 BKN
09:25 4.9 °F 3.1 °F 1002.6 in East 5.6 mph 5.6 mph 88 % 0.5 in 46.0 W/m2 RA
09:30 4.9 °F 3.1 °F 1002.6 in ESE 7.4 mph 7.4 mph 88 % 0.5 in 54.0 W/m2 SCT
09:35 4.9 °F 3.1 °F 1002.9 in ESE 9.3 mph 9.3 mph 88 % 0.5 in 72.0 W/m2 SCT
09:40 4.9 °F 3.2 °F 1002.6 in SE 13.0 mph 13.0 mph 89 % 0.5 in 97.0 W/m2 FEW
09:45 5.1 °F 3.4 °F 1002.6 in SSE 7.4 mph 7.4 mph 89 % 0.5 in 107.0 W/m2 CLR
09:50 5.2 °F 3.5 °F 1002.6 in SE 7.4 mph 7.4 mph 89 % 0.3 in 109.0 W/m2 CLR
09:55 5.3 °F 3.6 °F 1002.6 in SE 5.6 mph 5.6 mph 89 % 0.3 in 113.0 W/m2 CLR
10:00 5.3 °F 3.7 °F 1002.6 in SSE 8.0 mph 8.0 mph 89 % 0.3 in 125.0 W/m2 CLR
10:05 5.4 °F 3.8 °F 1002.3 in SE 8.0 mph 8.0 mph 89 % 0.3 in 139.0 W/m2 CLR
10:10 5.6 °F 3.7 °F 1002.3 in SE 7.4 mph 7.4 mph 88 % 0.3 in 109.0 W/m2 CLR
10:15 5.7 °F 3.8 °F 1002.3 in SE 7.4 mph 7.4 mph 88 % 0.3 in 128.0 W/m2 CLR
10:20 5.8 °F 3.9 °F 1002.3 in East 16.1 mph 16.1 mph 88 % 0.3 in 144.0 W/m2 CLR
10:25 5.9 °F 4.1 °F 1002.3 in East 13.0 mph 13.0 mph 88 % 0.0 in 116.0 W/m2 CLR
10:30 5.9 °F 4.1 °F 1002.3 in ENE 13.0 mph 13.0 mph 88 % 0.0 in 144.0 W/m2 CLR
10:35 5.9 °F 4.3 °F 1002.3 in East 14.5 mph 14.5 mph 89 % 0.0 in 214.0 W/m2 CLR
10:40 6.1 °F 4.4 °F 1001.9 in ESE 16.7 mph 16.7 mph 89 % 0.0 in 162.0 W/m2 CLR
10:45 6.5 °F 4.7 °F 1001.9 in SE 18.5 mph 18.5 mph 88 % 0.0 in 274.0 W/m2 CLR
10:50 6.9 °F 4.9 °F 1001.9 in SE 14.8 mph 14.8 mph 87 % 0.0 in 355.0 W/m2 CLR
10:55 7.2 °F 5.1 °F 1001.9 in ESE 17.7 mph 17.7 mph 86 % 0.0 in 285.0 W/m2 CLR
11:00 7.7 °F 5.5 °F 1001.9 in South 13.0 mph 13.0 mph 86 % 0.0 in 420.0 W/m2 CLR
11:05 7.8 °F 5.2 °F 1001.6 in SSE 27.8 mph 27.8 mph 84 % 0.0 in 374.0 W/m2 CLR
11:10 8.0 °F 5.4 °F 1001.9 in SE 24.1 mph 24.1 mph 84 % 0.0 in 499.0 W/m2 CLR
11:15 8.2 °F 5.4 °F 1001.6 in SE 20.4 mph 20.4 mph 83 % 0.0 in 329.0 W/m2 CLR
11:20 8.3 °F 5.6 °F 1001.6 in SSE 18.5 mph 18.5 mph 83 % 0.0 in 369.0 W/m2 CLR
11:25 8.6 °F 5.8 °F 1001.6 in SSE 13.0 mph 13.0 mph 83 % 0.0 in 394.0 W/m2 CLR
11:30 8.9 °F 6.0 °F 1001.6 in SSE 18.5 mph 18.5 mph 82 % 0.0 in 378.0 W/m2 CLR
11:35 8.9 °F 5.8 °F 1001.6 in SE 22.5 mph 22.5 mph 81 % 0.0 in 315.0 W/m2 CLR
11:40 8.8 °F 5.9 °F 1001.6 in ESE 13.0 mph 13.0 mph 82 % 0.0 in 288.0 W/m2 CLR
11:45 8.8 °F 5.9 °F 1001.6 in South 16.7 mph 16.7 mph 82 % 0.0 in 278.0 W/m2 CLR
11:50 8.9 °F 6.1 °F 1001.6 in SSE 18.5 mph 18.5 mph 82 % 0.0 in 229.0 W/m2 CLR
11:55 9.1 °F 5.9 °F 1001.6 in SSE 22.2 mph 22.2 mph 81 % 0.0 in 239.0 W/m2 CLR
12:00 9.2 °F 5.9 °F 1001.6 in SSE 18.5 mph 18.5 mph 80 % 0.0 in 237.0 W/m2 CLR
12:05 9.3 °F 6.0 °F 1001.6 in SE 14.8 mph 14.8 mph 80 % 0.0 in 193.0 W/m2 CLR
12:10 9.1 °F 5.8 °F 1001.6 in SE 11.1 mph 11.1 mph 80 % 0.0 in 160.0 W/m2 CLR
12:15 8.9 °F 5.8 °F 1001.2 in SSE 16.7 mph 16.7 mph 81 % 0.0 in 220.0 W/m2 CLR
12:20 8.8 °F 5.7 °F 1001.2 in SSE 20.4 mph 20.4 mph 81 % 0.0 in 227.0 W/m2 CLR
12:25 8.8 °F 5.7 °F 1001.2 in SE 18.5 mph 18.5 mph 81 % 0.0 in 213.0 W/m2 CLR
12:30 9.0 °F 5.9 °F 1001.2 in SE 11.1 mph 11.1 mph 81 % 0.0 in 230.0 W/m2 CLR
12:35 9.0 °F 5.9 °F 1001.2 in SE 18.5 mph 18.5 mph 81 % 0.0 in 248.0 W/m2 CLR
12:40 9.1 °F 5.9 °F 1001.2 in SE 13.0 mph 13.0 mph 81 % 0.0 in 253.0 W/m2 CLR
12:45 9.1 °F 5.8 °F 1000.9 in SSE 22.2 mph 22.2 mph 80 % 0.0 in 260.0 W/m2 CLR
12:50 9.3 °F 6.0 °F 1000.9 in SSE 20.4 mph 20.4 mph 80 % 0.0 in 285.0 W/m2 CLR
12:55 9.4 °F 6.1 °F 1000.6 in SE 18.5 mph 18.5 mph 80 % 0.0 in 258.0 W/m2 CLR
13:00 9.6 °F 6.3 °F 1000.6 in SSE 14.5 mph 14.5 mph 80 % 0.0 in 276.0 W/m2 CLR
13:05 9.7 °F 6.3 °F 1000.6 in SE 22.2 mph 22.2 mph 79 % 0.0 in 306.0 W/m2 CLR
13:11 9.8 °F 6.3 °F 1000.6 in SSE 14.8 mph 14.8 mph 79 % 0.0 in 311.0 W/m2 CLR
13:16 9.9 °F 6.4 °F 1000.6 in SSE 19.3 mph 19.3 mph 79 % 0.0 in 278.0 W/m2 CLR
13:21 9.9 °F 6.4 °F 1000.6 in SE 16.7 mph 16.7 mph 79 % 0.0 in 308.0 W/m2 CLR
13:26 10.0 °F 6.5 °F 1000.2 in SSE 25.9 mph 25.9 mph 79 % 0.0 in 265.0 W/m2 CLR
13:31 10.1 °F 6.8 °F 1000.2 in SE 20.4 mph 20.4 mph 80 % 0.0 in 264.0 W/m2 CLR
13:36 10.1 °F 6.6 °F 1000.2 in SE 16.7 mph 16.7 mph 79 % 0.0 in 255.0 W/m2 CLR
13:41 10.1 °F 6.6 °F 999.9 in SE 18.5 mph 18.5 mph 79 % 0.0 in 234.0 W/m2 CLR
13:46 10.1 °F 6.8 °F 1000.2 in SE 13.0 mph 13.0 mph 80 % 0.0 in 265.0 W/m2 CLR
13:51 10.2 °F 6.9 °F 999.9 in SE 9.3 mph 9.3 mph 80 % 0.0 in 243.0 W/m2 CLR
13:56 10.3 °F 7.0 °F 999.9 in Calm     80 % 0.0 in 204.0 W/m2 CLR
14:01 10.6 °F 7.1 °F 999.5 in SE 6.4 mph 6.4 mph 79 % 0.0 in 155.0 W/m2 CLR
14:06 11.0 °F 7.1 °F 999.5 in SSE 11.1 mph 11.1 mph 77 % 0.0 in 134.0 W/m2 CLR
14:11 11.2 °F 7.1 °F 999.5 in SSE 7.4 mph 7.4 mph 76 % 0.0 in 141.0 W/m2 CLR
14:16 11.1 °F 7.1 °F 999.5 in SSE 6.4 mph 6.4 mph 76 % 0.0 in 209.0 W/m2 CLR
14:21 10.9 °F 7.1 °F 999.5 in SE 5.6 mph 5.6 mph 77 % 0.0 in 223.0 W/m2 CLR
14:26 10.6 °F 6.9 °F 999.5 in SSE 11.1 mph 11.1 mph 78 % 0.0 in 267.0 W/m2 CLR
14:31 10.1 °F 6.6 °F 999.5 in SSE 14.8 mph 14.8 mph 79 % 0.0 in 274.0 W/m2 CLR
14:36 10.1 °F 6.8 °F 999.5 in SSE 14.8 mph 14.8 mph 80 % 0.0 in 265.0 W/m2 CLR
14:41 10.1 °F 6.8 °F 999.5 in SSE 11.1 mph 11.1 mph 80 % 0.0 in 255.0 W/m2 CLR
14:46 10.2 °F 6.7 °F 999.2 in South 13.0 mph 13.0 mph 79 % 0.0 in 236.0 W/m2 CLR
14:51 10.1 °F 6.6 °F 999.2 in SE 18.5 mph 18.5 mph 79 % 0.0 in 218.0 W/m2 CLR
14:56 9.6 °F 6.3 °F 999.2 in SE 14.8 mph 14.8 mph 80 % 0.0 in 204.0 W/m2 CLR
15:01 9.3 °F 6.4 °F 999.2 in SSE 14.8 mph 14.8 mph 82 % 0.0 in 195.0 W/m2 CLR
15:06 9.3 °F 6.4 °F 999.2 in South 16.7 mph 16.7 mph 82 % 0.0 in 220.0 W/m2 CLR
15:11 9.3 °F 6.4 °F 999.2 in South 9.3 mph 9.3 mph 82 % 0.0 in 193.0 W/m2 CLR
15:16 9.3 °F 6.6 °F 999.2 in South 13.0 mph 13.0 mph 83 % 0.0 in 179.0 W/m2 CLR
15:21 9.4 °F 6.7 °F 999.2 in Calm     83 % 0.0 in 197.0 W/m2 CLR
15:26 9.3 °F 6.6 °F 999.2 in SE 6.4 mph 6.4 mph 83 % 0.0 in 216.0 W/m2 CLR
15:31 9.1 °F 6.3 °F 999.2 in ESE 5.6 mph 5.6 mph 83 % 0.0 in 211.0 W/m2 CLR
15:36 9.1 °F 6.5 °F 999.2 in Calm     84 % 0.0 in 195.0 W/m2 CLR
15:41 9.1 °F 6.6 °F 998.9 in Calm     84 % 0.0 in 213.0 W/m2 CLR
15:46 9.3 °F 6.7 °F 998.9 in Calm     84 % 0.0 in 214.0 W/m2 CLR
15:51 9.4 °F 6.7 °F 998.9 in Calm     83 % 0.0 in 236.0 W/m2 CLR
15:56 9.5 °F 6.8 °F 998.9 in Calm     83 % 0.0 in 230.0 W/m2 CLR
16:01 9.6 °F 7.0 °F 998.5 in Calm     84 % 0.0 in 308.0 W/m2 CLR
16:06 9.6 °F 7.2 °F 998.5 in Calm     85 % 0.0 in 327.0 W/m2 CLR
16:11 9.8 °F 7.6 °F 998.5 in Calm     86 % 0.0 in 276.0 W/m2 CLR
16:16 9.6 °F 6.9 °F 998.5 in West 8.0 mph 8.0 mph 83 % 0.0 in 350.0 W/m2 CLR
16:21 9.3 °F 6.8 °F 998.5 in Calm     84 % 0.0 in 376.0 W/m2 CLR
16:26 9.5 °F 7.1 °F 998.5 in Calm     85 % 0.0 in 360.0 W/m2 CLR
16:31 9.9 °F 7.6 °F 998.5 in Calm     85 % 0.0 in 434.0 W/m2 CLR
16:36 10.3 °F 7.9 °F 998.9 in Calm     85 % 0.0 in 265.0 W/m2 CLR
16:41 10.6 °F 7.7 °F 998.9 in Calm     82 % 0.0 in 193.0 W/m2 CLR
16:46 10.6 °F 7.5 °F 998.5 in Calm     81 % 0.0 in 158.0 W/m2 CLR
16:51 10.6 °F 7.5 °F 998.5 in Calm     81 % 0.0 in 142.0 W/m2 CLR
16:56 10.5 °F 7.4 °F 998.2 in Calm     81 % 0.0 in 141.0 W/m2 CLR
17:01 10.3 °F 7.2 °F 998.5 in Calm   0.2 mph 81 % 0.0 in 149.0 W/m2 CLR
17:06 10.1 °F 7.0 °F 998.5 in Calm     81 % 0.0 in 142.0 W/m2 CLR
17:11 9.9 °F 6.8 °F 998.5 in Calm     81 % 0.0 in 132.0 W/m2 CLR
17:16 9.7 °F 6.7 °F 998.5 in East 5.6 mph 5.6 mph 82 % 0.0 in 128.0 W/m2 CLR
17:21 9.4 °F 6.7 °F 998.5 in Calm     83 % 0.0 in 128.0 W/m2 CLR
17:26 9.2 °F 6.6 °F 998.2 in Calm     84 % 0.0 in 116.0 W/m2 CLR
17:31 9.1 °F 6.7 °F 998.2 in Calm     85 % 0.0 in 97.0 W/m2 CLR
17:36 9.1 °F 6.7 °F 998.2 in Calm     85 % 0.0 in 79.0 W/m2 CLR
17:41 9.1 °F 6.7 °F 998.2 in Calm     85 % 0.0 in 67.0 W/m2 FEW
17:46 8.9 °F 6.6 °F 998.2 in Calm     85 % 0.0 in 53.0 W/m2 FEW
17:51 8.7 °F 6.3 °F 998.2 in ENE 6.4 mph 6.4 mph 85 % 0.0 in 42.0 W/m2 BKN
17:56 8.5 °F 6.3 °F 997.9 in ENE 5.6 mph   86 % 0.0 in 42.0 W/m2 BKN
18:01 8.4 °F 6.2 °F 997.9 in East 1.9 mph   86 % 0.0 in 40.0 W/m2 BKN
18:06 8.3 °F 6.1 °F 997.9 in East 1.6 mph 1.6 mph 86 % 0.0 in 30.0 W/m2 BKN
18:11 8.3 °F 6.2 °F 997.5 in Calm     87 % 0.0 in 21.0 W/m2 BKN
18:16 8.2 °F 6.2 °F 997.9 in Calm     87 % 0.0 in 18.0 W/m2 BKN
18:21 8.2 °F 6.1 °F 997.9 in Calm     87 % 0.0 in 16.0 W/m2 BKN
18:26 8.1 °F 6.0 °F 997.5 in Calm     87 % 0.0 in 12.0 W/m2 BKN
18:31 8.0 °F 5.9 °F 997.5 in East 3.7 mph 3.7 mph 87 % 0.0 in 9.0 W/m2 BKN
18:36 8.0 °F 6.1 °F 997.5 in Calm     88 % 0.0 in 5.0 W/m2 OVC
18:41 7.9 °F 6.1 °F 997.5 in Calm     88 % 0.0 in 0.0 W/m2 OVC
18:46 7.9 °F 6.1 °F 997.2 in Calm     88 % 0.0 in 0.0 W/m2 OVC
18:51 7.9 °F 6.0 °F 997.2 in ENE 6.4 mph 6.4 mph 88 % 0.0 in 0.0 W/m2 OVC
18:56 7.8 °F 5.9 °F 996.8 in Calm     88 % 0.0 in 0.0 W/m2 OVC
19:01 7.8 °F 5.9 °F 996.8 in Calm     88 % 0.0 in 0.0 W/m2 CLR
19:06 7.8 °F 5.9 °F 996.8 in Calm     88 % 0.0 in 0.0 W/m2 CLR
19:11 7.7 °F 6.0 °F 996.5 in Calm     89 % 0.0 in 0.0 W/m2 CLR
19:16 7.7 °F 6.0 °F 996.5 in Calm     89 % 0.0 in 0.0 W/m2 CLR
19:22 7.7 °F 6.0 °F 996.5 in SSE 3.7 mph 3.7 mph 89 % 0.0 in 0.0 W/m2 CLR
19:27 8.1 °F 6.3 °F 996.8 in Calm     89 % 0.0 in 0.0 W/m2 CLR
19:32 8.2 °F 6.3 °F 996.8 in Calm   0.2 mph 88 % 0.0 in 0.0 W/m2 CLR
19:37 8.2 °F 6.3 °F 997.2 in Calm     88 % 0.0 in 0.0 W/m2 CLR
19:42 8.3 °F 6.4 °F 997.2 in Calm   0.3 mph 88 % 0.0 in 0.0 W/m2 CLR
19:47 8.3 °F 6.4 °F 997.5 in Calm     88 % 0.0 in 0.0 W/m2 CLR
19:52 8.4 °F 6.5 °F 997.9 in Calm     88 % 0.0 in 0.0 W/m2 CLR
19:57 8.3 °F 6.3 °F 997.9 in Calm     87 % 0.0 in 0.0 W/m2 CLR
20:02 8.2 °F 6.1 °F 997.9 in Calm     87 % 0.0 in 0.0 W/m2 CLR
20:07 8.1 °F 6.2 °F 997.9 in Calm     88 % 0.0 in 0.0 W/m2 CLR
20:12 7.9 °F 6.1 °F 997.5 in Calm     88 % 0.0 in 0.0 W/m2 CLR
20:17 7.9 °F 6.2 °F 997.5 in Calm     89 % 0.0 in 0.0 W/m2 CLR
20:22 8.1 °F 6.3 °F 997.9 in Calm     89 % 0.0 in 0.0 W/m2 CLR
20:27 8.2 °F 6.4 °F 997.9 in Calm     89 % 0.0 in 0.0 W/m2 CLR
20:32 8.3 °F 6.6 °F 997.9 in Calm     89 % 0.0 in 0.0 W/m2 CLR
20:37 8.7 °F 6.8 °F 997.9 in Calm     88 % 0.0 in 0.0 W/m2 CLR
20:42 8.7 °F 6.7 °F 997.9 in Calm     87 % 0.0 in 0.0 W/m2 CLR
20:47 8.6 °F 6.6 °F 997.5 in Calm     87 % 0.0 in 0.0 W/m2 CLR
20:52 8.5 °F 6.4 °F 997.5 in Calm     87 % 0.0 in 0.0 W/m2 CLR
20:57 8.7 °F 6.8 °F 997.2 in SSW 11.1 mph 11.1 mph 88 % 0.0 in 0.0 W/m2 CLR
21:02 9.2 °F 7.2 °F 997.5 in Calm     87 % 0.0 in 0.0 W/m2 CLR
21:07 9.6 °F 7.2 °F 997.5 in Calm     85 % 0.0 in 0.0 W/m2 CLR
21:12 9.8 °F 7.3 °F 997.2 in SE 3.7 mph 3.7 mph 84 % 0.0 in 0.0 W/m2 CLR
21:17 10.1 °F 7.3 °F 997.2 in ENE 3.7 mph 3.7 mph 83 % 0.0 in 0.0 W/m2 CLR
21:22 10.2 °F 7.2 °F 997.2 in NE 7.4 mph 7.4 mph 82 % 0.0 in 0.0 W/m2 CLR
21:27 10.1 °F 7.2 °F 997.5 in East 8.0 mph 8.0 mph 82 % 0.0 in 0.0 W/m2 CLR
21:32 10.2 °F 7.2 °F 997.2 in ENE 7.4 mph 7.4 mph 82 % 0.0 in 0.0 W/m2 CLR
21:37 10.1 °F 7.2 °F 997.2 in ENE 5.6 mph 5.6 mph 82 % 0.0 in 0.0 W/m2 CLR
21:42 10.0 °F 7.1 °F 997.2 in East 9.7 mph 9.7 mph 82 % 0.0 in 0.0 W/m2 CLR
21:47 9.8 °F 6.8 °F 996.8 in ENE 7.4 mph 7.4 mph 82 % 0.0 in 0.0 W/m2 CLR
21:52 9.6 °F 6.8 °F 997.2 in NE 5.6 mph   83 % 0.0 in 0.0 W/m2 CLR
21:57 9.6 °F 6.9 °F 996.8 in Calm     83 % 0.0 in 0.0 W/m2 CLR
22:02 9.7 °F 6.9 °F 996.8 in Calm     83 % 0.0 in 0.0 W/m2 CLR
22:07 9.8 °F 7.1 °F 996.8 in Calm     83 % 0.0 in 0.0 W/m2 CLR
22:12 9.9 °F 7.0 °F 996.8 in Calm     82 % 0.0 in 0.0 W/m2 CLR
22:17 9.9 °F 7.0 °F 997.2 in Calm     82 % 0.0 in 0.0 W/m2 CLR
22:22 9.9 °F 7.0 °F 997.2 in NE 5.6 mph 5.6 mph 82 % 0.0 in 0.0 W/m2 CLR
22:27 9.9 °F 6.9 °F 997.2 in Calm     82 % 0.0 in 0.0 W/m2 CLR
22:32 9.9 °F 7.0 °F 997.5 in Calm     82 % 0.0 in 0.0 W/m2 CLR
22:37 9.9 °F 7.0 °F 997.2 in Calm     82 % 0.0 in 0.0 W/m2 CLR
22:42 9.8 °F 6.9 °F 997.5 in Calm     82 % 0.0 in 0.0 W/m2 CLR
22:47 9.7 °F 6.8 °F 997.5 in Calm     82 % 0.0 in 0.0 W/m2 CLR
22:52 9.6 °F 6.9 °F 997.2 in Calm     83 % 0.0 in 0.0 W/m2 CLR
22:57 9.4 °F 6.7 °F 997.2 in Calm     83 % 0.0 in 0.0 W/m2 CLR
23:02 9.3 °F 6.7 °F 996.8 in Calm     84 % 0.0 in 0.0 W/m2 CLR
23:07 9.2 °F 6.8 °F 996.8 in Calm     85 % 0.0 in 0.0 W/m2 CLR
23:12 9.3 °F 6.9 °F 996.8 in Calm     85 % 0.0 in 0.0 W/m2 CLR
23:17 9.3 °F 6.7 °F 996.8 in Calm     84 % 0.0 in 0.0 W/m2 CLR
23:22 9.2 °F 6.8 °F 996.8 in Calm     85 % 0.0 in 0.0 W/m2 CLR
23:27 9.1 °F 6.7 °F 996.8 in Calm     85 % 0.0 in 0.0 W/m2 CLR
23:32 9.1 °F 6.7 °F 997.2 in Calm     85 % 0.0 in 0.0 W/m2 CLR
23:37 9.1 °F 6.7 °F 997.2 in Calm     85 % 0.0 in 0.0 W/m2 CLR
23:42 8.9 °F 6.6 °F 997.2 in Calm     85 % 0.0 in 0.0 W/m2 CLR
23:47 8.9 °F 6.7 °F 997.2 in Calm     86 % 0.0 in 0.0 W/m2 CLR
23:52 8.8 °F 6.6 °F 997.2 in Calm     86 % 0.0 in 0.0 W/m2 CLR
23:57 8.8 °F 6.6 °F 996.8 in Calm     86 % 0.0 in 0.0 W/m2 CLR
Lo Temps de Massalio
Compliments of Weather Underground - 1.25 mb